sensor_id;sensor_type;location;lat;lon;timestamp;P1;durP1;ratioP1;P2;durP2;ratioP2
51872;SDS011;52863;52.504;13.480;2022-07-03T00:00:10;5.47;;;4.00;;
51872;SDS011;52863;52.504;13.480;2022-07-03T00:03:02;4.50;;;3.63;;
51872;SDS011;52863;52.504;13.480;2022-07-03T00:05:36;4.47;;;3.77;;
51872;SDS011;52863;52.504;13.480;2022-07-03T00:08:07;4.80;;;3.93;;
51872;SDS011;52863;52.504;13.480;2022-07-03T00:10:35;5.10;;;3.93;;
51872;SDS011;52863;52.504;13.480;2022-07-03T00:13:04;5.90;;;3.77;;
51872;SDS011;52863;52.504;13.480;2022-07-03T00:15:33;4.30;;;3.87;;
51872;SDS011;52863;52.504;13.480;2022-07-03T00:18:20;5.47;;;4.20;;
51872;SDS011;52863;52.504;13.480;2022-07-03T00:21:14;5.90;;;4.07;;
51872;SDS011;52863;52.504;13.480;2022-07-03T00:23:46;6.27;;;3.87;;
51872;SDS011;52863;52.504;13.480;2022-07-03T00:26:20;7.10;;;4.47;;
51872;SDS011;52863;52.504;13.480;2022-07-03T00:28:47;4.27;;;3.87;;
51872;SDS011;52863;52.504;13.480;2022-07-03T00:31:14;5.33;;;3.70;;
51872;SDS011;52863;52.504;13.480;2022-07-03T00:33:42;4.47;;;4.07;;
51872;SDS011;52863;52.504;13.480;2022-07-03T00:36:10;5.00;;;4.13;;
51872;SDS011;52863;52.504;13.480;2022-07-03T00:38:38;4.40;;;4.00;;
51872;SDS011;52863;52.504;13.480;2022-07-03T00:41:04;4.83;;;4.10;;
51872;SDS011;52863;52.504;13.480;2022-07-03T00:43:32;5.93;;;4.47;;
51872;SDS011;52863;52.504;13.480;2022-07-03T00:46:03;5.03;;;4.20;;
51872;SDS011;52863;52.504;13.480;2022-07-03T00:48:36;5.70;;;4.03;;
51872;SDS011;52863;52.504;13.480;2022-07-03T00:51:04;5.20;;;4.53;;
51872;SDS011;52863;52.504;13.480;2022-07-03T00:53:32;4.80;;;4.30;;
51872;SDS011;52863;52.504;13.480;2022-07-03T00:56:04;5.10;;;4.23;;
51872;SDS011;52863;52.504;13.480;2022-07-03T00:58:32;6.43;;;4.60;;
51872;SDS011;52863;52.504;13.480;2022-07-03T01:01:00;5.73;;;4.13;;
51872;SDS011;52863;52.504;13.480;2022-07-03T01:03:27;5.33;;;4.50;;
51872;SDS011;52863;52.504;13.480;2022-07-03T01:06:00;5.03;;;4.07;;
51872;SDS011;52863;52.504;13.480;2022-07-03T01:08:36;4.80;;;3.80;;
51872;SDS011;52863;52.504;13.480;2022-07-03T01:11:08;6.07;;;4.27;;
51872;SDS011;52863;52.504;13.480;2022-07-03T01:13:56;5.77;;;4.20;;
51872;SDS011;52863;52.504;13.480;2022-07-03T01:16:30;4.03;;;3.73;;
51872;SDS011;52863;52.504;13.480;2022-07-03T01:19:04;5.50;;;4.63;;
51872;SDS011;52863;52.504;13.480;2022-07-03T01:21:55;6.57;;;4.17;;
51872;SDS011;52863;52.504;13.480;2022-07-03T01:24:51;5.17;;;4.33;;
51872;SDS011;52863;52.504;13.480;2022-07-03T01:27:30;6.63;;;4.60;;
51872;SDS011;52863;52.504;13.480;2022-07-03T01:30:02;5.40;;;4.57;;
51872;SDS011;52863;52.504;13.480;2022-07-03T01:32:32;6.50;;;4.57;;
51872;SDS011;52863;52.504;13.480;2022-07-03T01:35:03;5.47;;;4.40;;
51872;SDS011;52863;52.504;13.480;2022-07-03T01:37:33;5.30;;;4.63;;
51872;SDS011;52863;52.504;13.480;2022-07-03T01:40:02;5.80;;;4.70;;
51872;SDS011;52863;52.504;13.480;2022-07-03T01:42:30;4.90;;;4.40;;
51872;SDS011;52863;52.504;13.480;2022-07-03T01:44:59;6.17;;;4.70;;
51872;SDS011;52863;52.504;13.480;2022-07-03T01:47:27;4.73;;;4.30;;
51872;SDS011;52863;52.504;13.480;2022-07-03T01:49:55;7.50;;;4.50;;
51872;SDS011;52863;52.504;13.480;2022-07-03T01:52:22;5.13;;;4.30;;
51872;SDS011;52863;52.504;13.480;2022-07-03T01:55:10;5.97;;;4.60;;
51872;SDS011;52863;52.504;13.480;2022-07-03T01:57:42;5.87;;;4.60;;
51872;SDS011;52863;52.504;13.480;2022-07-03T02:00:09;6.00;;;4.30;;
51872;SDS011;52863;52.504;13.480;2022-07-03T02:02:40;4.83;;;4.43;;
51872;SDS011;52863;52.504;13.480;2022-07-03T02:05:14;5.33;;;4.57;;
51872;SDS011;52863;52.504;13.480;2022-07-03T02:07:55;4.77;;;4.33;;
51872;SDS011;52863;52.504;13.480;2022-07-03T02:10:27;6.50;;;4.30;;
51872;SDS011;52863;52.504;13.480;2022-07-03T02:12:59;7.73;;;4.90;;
51872;SDS011;52863;52.504;13.480;2022-07-03T02:15:31;4.97;;;4.47;;
51872;SDS011;52863;52.504;13.480;2022-07-03T02:18:00;5.30;;;4.50;;
51872;SDS011;52863;52.504;13.480;2022-07-03T02:20:35;5.03;;;4.40;;
51872;SDS011;52863;52.504;13.480;2022-07-03T02:23:04;5.13;;;4.63;;
51872;SDS011;52863;52.504;13.480;2022-07-03T02:25:34;4.97;;;4.40;;
51872;SDS011;52863;52.504;13.480;2022-07-03T02:28:03;6.03;;;4.57;;
51872;SDS011;52863;52.504;13.480;2022-07-03T02:30:34;5.40;;;4.23;;
51872;SDS011;52863;52.504;13.480;2022-07-03T02:33:02;6.33;;;4.27;;
51872;SDS011;52863;52.504;13.480;2022-07-03T02:35:31;5.00;;;4.47;;
51872;SDS011;52863;52.504;13.480;2022-07-03T02:37:59;4.73;;;4.33;;
51872;SDS011;52863;52.504;13.480;2022-07-03T02:40:31;7.57;;;5.03;;
51872;SDS011;52863;52.504;13.480;2022-07-03T02:43:08;6.10;;;4.87;;
51872;SDS011;52863;52.504;13.480;2022-07-03T02:45:40;5.60;;;4.67;;
51872;SDS011;52863;52.504;13.480;2022-07-03T02:48:12;6.20;;;5.20;;
51872;SDS011;52863;52.504;13.480;2022-07-03T02:50:46;5.87;;;4.57;;
51872;SDS011;52863;52.504;13.480;2022-07-03T02:53:20;5.87;;;4.40;;
51872;SDS011;52863;52.504;13.480;2022-07-03T02:55:54;6.03;;;4.50;;
51872;SDS011;52863;52.504;13.480;2022-07-03T02:58:52;5.13;;;4.60;;
51872;SDS011;52863;52.504;13.480;2022-07-03T03:01:30;6.50;;;5.00;;
51872;SDS011;52863;52.504;13.480;2022-07-03T03:04:07;6.03;;;4.93;;
51872;SDS011;52863;52.504;13.480;2022-07-03T03:06:38;6.30;;;5.47;;
51872;SDS011;52863;52.504;13.480;2022-07-03T03:09:11;5.57;;;5.00;;
51872;SDS011;52863;52.504;13.480;2022-07-03T03:11:45;5.03;;;4.60;;
51872;SDS011;52863;52.504;13.480;2022-07-03T03:14:15;5.63;;;4.53;;
51872;SDS011;52863;52.504;13.480;2022-07-03T03:16:46;5.40;;;4.87;;
51872;SDS011;52863;52.504;13.480;2022-07-03T03:19:14;6.80;;;5.10;;
51872;SDS011;52863;52.504;13.480;2022-07-03T03:21:42;6.63;;;4.43;;
51872;SDS011;52863;52.504;13.480;2022-07-03T03:24:18;5.37;;;4.43;;
51872;SDS011;52863;52.504;13.480;2022-07-03T03:26:45;6.73;;;4.57;;
51872;SDS011;52863;52.504;13.480;2022-07-03T03:29:12;6.03;;;5.00;;
51872;SDS011;52863;52.504;13.480;2022-07-03T03:31:40;5.20;;;4.67;;
51872;SDS011;52863;52.504;13.480;2022-07-03T03:34:07;5.70;;;4.80;;
51872;SDS011;52863;52.504;13.480;2022-07-03T03:36:35;6.70;;;4.93;;
51872;SDS011;52863;52.504;13.480;2022-07-03T03:39:03;5.73;;;4.63;;
51872;SDS011;52863;52.504;13.480;2022-07-03T03:41:29;4.90;;;4.20;;
51872;SDS011;52863;52.504;13.480;2022-07-03T03:43:56;5.30;;;4.80;;
51872;SDS011;52863;52.504;13.480;2022-07-03T03:46:23;5.27;;;4.47;;
51872;SDS011;52863;52.504;13.480;2022-07-03T03:48:50;6.03;;;4.80;;
51872;SDS011;52863;52.504;13.480;2022-07-03T03:51:17;5.63;;;5.13;;
51872;SDS011;52863;52.504;13.480;2022-07-03T03:53:44;6.13;;;4.93;;
51872;SDS011;52863;52.504;13.480;2022-07-03T03:56:17;5.33;;;4.83;;
51872;SDS011;52863;52.504;13.480;2022-07-03T03:58:44;6.13;;;5.03;;
51872;SDS011;52863;52.504;13.480;2022-07-03T04:01:11;6.03;;;4.80;;
51872;SDS011;52863;52.504;13.480;2022-07-03T04:03:38;4.80;;;4.17;;
51872;SDS011;52863;52.504;13.480;2022-07-03T04:06:06;5.10;;;4.63;;
51872;SDS011;52863;52.504;13.480;2022-07-03T04:08:33;5.97;;;4.43;;
51872;SDS011;52863;52.504;13.480;2022-07-03T04:11:00;5.20;;;4.27;;
51872;SDS011;52863;52.504;13.480;2022-07-03T04:13:27;4.87;;;4.40;;
51872;SDS011;52863;52.504;13.480;2022-07-03T04:15:54;5.93;;;4.13;;
51872;SDS011;52863;52.504;13.480;2022-07-03T04:18:21;4.80;;;4.33;;
51872;SDS011;52863;52.504;13.480;2022-07-03T04:20:48;5.50;;;4.30;;
51872;SDS011;52863;52.504;13.480;2022-07-03T04:23:16;5.37;;;4.17;;
51872;SDS011;52863;52.504;13.480;2022-07-03T04:25:43;5.27;;;4.33;;
51872;SDS011;52863;52.504;13.480;2022-07-03T04:28:10;7.37;;;4.10;;
51872;SDS011;52863;52.504;13.480;2022-07-03T04:30:45;4.20;;;3.77;;
51872;SDS011;52863;52.504;13.480;2022-07-03T04:33:12;5.43;;;3.87;;
51872;SDS011;52863;52.504;13.480;2022-07-03T04:35:39;5.17;;;3.93;;
51872;SDS011;52863;52.504;13.480;2022-07-03T04:38:06;4.13;;;3.37;;
51872;SDS011;52863;52.504;13.480;2022-07-03T04:40:33;5.67;;;3.70;;
51872;SDS011;52863;52.504;13.480;2022-07-03T04:43:00;6.40;;;3.80;;
51872;SDS011;52863;52.504;13.480;2022-07-03T04:45:27;4.03;;;3.63;;
51872;SDS011;52863;52.504;13.480;2022-07-03T04:47:53;5.00;;;3.73;;
51872;SDS011;52863;52.504;13.480;2022-07-03T04:50:20;4.20;;;3.70;;
51872;SDS011;52863;52.504;13.480;2022-07-03T04:52:47;4.30;;;3.47;;
51872;SDS011;52863;52.504;13.480;2022-07-03T04:55:14;4.60;;;3.40;;
51872;SDS011;52863;52.504;13.480;2022-07-03T04:57:41;4.70;;;3.30;;
51872;SDS011;52863;52.504;13.480;2022-07-03T05:00:08;5.67;;;3.47;;
51872;SDS011;52863;52.504;13.480;2022-07-03T05:02:35;4.03;;;3.57;;
51872;SDS011;52863;52.504;13.480;2022-07-03T05:05:02;3.97;;;3.57;;
51872;SDS011;52863;52.504;13.480;2022-07-03T05:07:33;3.60;;;3.30;;
51872;SDS011;52863;52.504;13.480;2022-07-03T05:10:00;5.90;;;3.57;;
51872;SDS011;52863;52.504;13.480;2022-07-03T05:12:27;3.97;;;3.40;;
51872;SDS011;52863;52.504;13.480;2022-07-03T05:14:54;5.07;;;3.17;;
51872;SDS011;52863;52.504;13.480;2022-07-03T05:17:21;5.17;;;3.77;;
51872;SDS011;52863;52.504;13.480;2022-07-03T05:19:47;5.90;;;3.20;;
51872;SDS011;52863;52.504;13.480;2022-07-03T05:22:35;4.03;;;3.10;;
51872;SDS011;52863;52.504;13.480;2022-07-03T05:25:02;3.50;;;3.20;;
51872;SDS011;52863;52.504;13.480;2022-07-03T05:27:29;4.03;;;3.27;;
51872;SDS011;52863;52.504;13.480;2022-07-03T05:29:56;3.57;;;3.00;;
51872;SDS011;52863;52.504;13.480;2022-07-03T05:32:23;3.23;;;2.93;;
51872;SDS011;52863;52.504;13.480;2022-07-03T05:34:50;4.20;;;3.10;;
51872;SDS011;52863;52.504;13.480;2022-07-03T05:37:16;2.73;;;2.53;;
51872;SDS011;52863;52.504;13.480;2022-07-03T05:39:43;3.33;;;3.03;;
51872;SDS011;52863;52.504;13.480;2022-07-03T05:42:11;4.27;;;3.00;;
51872;SDS011;52863;52.504;13.480;2022-07-03T05:44:38;3.67;;;2.70;;
51872;SDS011;52863;52.504;13.480;2022-07-03T05:47:05;3.60;;;2.60;;
51872;SDS011;52863;52.504;13.480;2022-07-03T05:49:32;4.50;;;2.37;;
51872;SDS011;52863;52.504;13.480;2022-07-03T05:51:59;2.73;;;2.53;;
51872;SDS011;52863;52.504;13.480;2022-07-03T05:54:25;4.07;;;2.70;;
51872;SDS011;52863;52.504;13.480;2022-07-03T05:56:52;3.40;;;2.80;;
51872;SDS011;52863;52.504;13.480;2022-07-03T05:59:19;3.20;;;2.60;;
51872;SDS011;52863;52.504;13.480;2022-07-03T06:01:46;3.13;;;2.47;;
51872;SDS011;52863;52.504;13.480;2022-07-03T06:04:14;4.20;;;2.50;;
51872;SDS011;52863;52.504;13.480;2022-07-03T06:06:41;3.00;;;2.17;;
51872;SDS011;52863;52.504;13.480;2022-07-03T06:09:08;2.80;;;2.47;;
51872;SDS011;52863;52.504;13.480;2022-07-03T06:11:42;3.07;;;2.50;;
51872;SDS011;52863;52.504;13.480;2022-07-03T06:14:08;2.53;;;2.33;;
51872;SDS011;52863;52.504;13.480;2022-07-03T06:16:35;2.57;;;2.37;;
51872;SDS011;52863;52.504;13.480;2022-07-03T06:19:02;3.93;;;2.50;;
51872;SDS011;52863;52.504;13.480;2022-07-03T06:21:30;6.13;;;2.70;;
51872;SDS011;52863;52.504;13.480;2022-07-03T06:23:57;5.60;;;2.60;;
51872;SDS011;52863;52.504;13.480;2022-07-03T06:26:24;2.90;;;2.70;;
51872;SDS011;52863;52.504;13.480;2022-07-03T06:28:54;5.10;;;2.57;;
51872;SDS011;52863;52.504;13.480;2022-07-03T06:31:21;3.20;;;2.90;;
51872;SDS011;52863;52.504;13.480;2022-07-03T06:33:48;3.27;;;2.57;;
51872;SDS011;52863;52.504;13.480;2022-07-03T06:36:15;6.33;;;2.60;;
51872;SDS011;52863;52.504;13.480;2022-07-03T06:38:46;2.63;;;2.43;;
51872;SDS011;52863;52.504;13.480;2022-07-03T06:41:14;4.37;;;2.57;;
51872;SDS011;52863;52.504;13.480;2022-07-03T06:43:41;3.50;;;2.70;;
51872;SDS011;52863;52.504;13.480;2022-07-03T06:46:08;3.53;;;2.67;;
51872;SDS011;52863;52.504;13.480;2022-07-03T06:48:35;3.10;;;2.30;;
51872;SDS011;52863;52.504;13.480;2022-07-03T06:51:02;3.20;;;2.60;;
51872;SDS011;52863;52.504;13.480;2022-07-03T06:53:29;2.53;;;2.33;;
51872;SDS011;52863;52.504;13.480;2022-07-03T06:55:56;3.67;;;2.20;;
51872;SDS011;52863;52.504;13.480;2022-07-03T06:58:23;6.30;;;2.57;;
51872;SDS011;52863;52.504;13.480;2022-07-03T07:00:50;3.17;;;2.40;;
51872;SDS011;52863;52.504;13.480;2022-07-03T07:03:17;4.10;;;2.60;;
51872;SDS011;52863;52.504;13.480;2022-07-03T07:05:43;3.57;;;2.40;;
51872;SDS011;52863;52.504;13.480;2022-07-03T07:08:10;2.47;;;2.10;;
51872;SDS011;52863;52.504;13.480;2022-07-03T07:10:37;2.40;;;2.20;;
51872;SDS011;52863;52.504;13.480;2022-07-03T07:13:05;4.27;;;2.30;;
51872;SDS011;52863;52.504;13.480;2022-07-03T07:15:31;2.50;;;2.30;;
51872;SDS011;52863;52.504;13.480;2022-07-03T07:17:58;2.43;;;2.23;;
51872;SDS011;52863;52.504;13.480;2022-07-03T07:20:25;3.97;;;2.47;;
51872;SDS011;52863;52.504;13.480;2022-07-03T07:22:52;2.70;;;2.20;;
51872;SDS011;52863;52.504;13.480;2022-07-03T07:25:19;2.90;;;2.50;;
51872;SDS011;52863;52.504;13.480;2022-07-03T07:27:46;3.37;;;2.07;;
51872;SDS011;52863;52.504;13.480;2022-07-03T07:30:14;2.40;;;2.20;;
51872;SDS011;52863;52.504;13.480;2022-07-03T07:32:41;3.03;;;2.50;;
51872;SDS011;52863;52.504;13.480;2022-07-03T07:35:08;2.30;;;2.10;;
51872;SDS011;52863;52.504;13.480;2022-07-03T07:37:35;3.40;;;1.77;;
51872;SDS011;52863;52.504;13.480;2022-07-03T07:40:02;2.33;;;2.10;;
51872;SDS011;52863;52.504;13.480;2022-07-03T07:42:30;3.23;;;2.20;;
51872;SDS011;52863;52.504;13.480;2022-07-03T07:44:57;2.43;;;2.20;;
51872;SDS011;52863;52.504;13.480;2022-07-03T07:47:25;4.53;;;1.83;;
51872;SDS011;52863;52.504;13.480;2022-07-03T07:49:51;4.18;;;2.75;;
51872;SDS011;52863;52.504;13.480;2022-07-03T07:52:18;2.43;;;2.00;;
51872;SDS011;52863;52.504;13.480;2022-07-03T07:54:45;5.03;;;1.90;;
51872;SDS011;52863;52.504;13.480;2022-07-03T07:57:14;3.33;;;1.90;;
51872;SDS011;52863;52.504;13.480;2022-07-03T07:59:41;1.80;;;1.70;;
51872;SDS011;52863;52.504;13.480;2022-07-03T08:02:13;3.20;;;2.00;;
51872;SDS011;52863;52.504;13.480;2022-07-03T08:04:59;2.73;;;2.17;;
51872;SDS011;52863;52.504;13.480;2022-07-03T08:07:44;3.00;;;2.17;;
51872;SDS011;52863;52.504;13.480;2022-07-03T08:10:10;2.17;;;1.90;;
51872;SDS011;52863;52.504;13.480;2022-07-03T08:12:37;4.43;;;1.80;;
51872;SDS011;52863;52.504;13.480;2022-07-03T08:15:04;3.07;;;1.90;;
51872;SDS011;52863;52.504;13.480;2022-07-03T08:17:32;2.00;;;1.80;;
51872;SDS011;52863;52.504;13.480;2022-07-03T08:19:59;2.63;;;2.17;;
51872;SDS011;52863;52.504;13.480;2022-07-03T08:22:26;1.97;;;1.40;;
51872;SDS011;52863;52.504;13.480;2022-07-03T08:24:53;2.17;;;2.03;;
51872;SDS011;52863;52.504;13.480;2022-07-03T08:27:21;2.17;;;1.97;;
51872;SDS011;52863;52.504;13.480;2022-07-03T08:29:48;3.03;;;1.77;;
51872;SDS011;52863;52.504;13.480;2022-07-03T08:32:15;3.90;;;1.90;;
51872;SDS011;52863;52.504;13.480;2022-07-03T08:34:42;3.43;;;1.80;;
51872;SDS011;52863;52.504;13.480;2022-07-03T08:37:10;2.30;;;2.07;;
51872;SDS011;52863;52.504;13.480;2022-07-03T08:39:37;5.50;;;2.17;;
51872;SDS011;52863;52.504;13.480;2022-07-03T08:42:05;2.70;;;2.00;;
51872;SDS011;52863;52.504;13.480;2022-07-03T08:44:34;2.33;;;2.07;;
51872;SDS011;52863;52.504;13.480;2022-07-03T08:47:02;4.37;;;1.90;;
51872;SDS011;52863;52.504;13.480;2022-07-03T08:49:33;3.70;;;1.90;;
51872;SDS011;52863;52.504;13.480;2022-07-03T08:52:02;3.87;;;1.90;;
51872;SDS011;52863;52.504;13.480;2022-07-03T08:54:33;2.37;;;1.90;;
51872;SDS011;52863;52.504;13.480;2022-07-03T08:57:00;3.53;;;2.37;;
51872;SDS011;52863;52.504;13.480;2022-07-03T08:59:30;4.30;;;1.80;;
51872;SDS011;52863;52.504;13.480;2022-07-03T09:02:02;4.00;;;2.10;;
51872;SDS011;52863;52.504;13.480;2022-07-03T09:04:30;2.10;;;1.90;;
51872;SDS011;52863;52.504;13.480;2022-07-03T09:06:57;3.93;;;2.13;;
51872;SDS011;52863;52.504;13.480;2022-07-03T09:09:26;3.63;;;2.03;;
51872;SDS011;52863;52.504;13.480;2022-07-03T09:11:54;2.17;;;1.90;;
51872;SDS011;52863;52.504;13.480;2022-07-03T09:14:22;2.60;;;1.90;;
51872;SDS011;52863;52.504;13.480;2022-07-03T09:16:49;3.77;;;1.90;;
51872;SDS011;52863;52.504;13.480;2022-07-03T09:22:21;3.53;;;1.73;;
51872;SDS011;52863;52.504;13.480;2022-07-03T09:24:50;4.60;;;1.65;;
51872;SDS011;52863;52.504;13.480;2022-07-03T09:27:21;3.23;;;1.57;;
51872;SDS011;52863;52.504;13.480;2022-07-03T09:32:40;1.70;;;1.60;;
51872;SDS011;52863;52.504;13.480;2022-07-03T09:35:11;2.65;;;1.50;;
51872;SDS011;52863;52.504;13.480;2022-07-03T09:37:40;2.05;;;1.70;;
51872;SDS011;52863;52.504;13.480;2022-07-03T09:40:13;1.67;;;1.48;;
51872;SDS011;52863;52.504;13.480;2022-07-03T09:42:40;2.95;;;1.70;;
51872;SDS011;52863;52.504;13.480;2022-07-03T09:45:22;2.05;;;1.85;;
51872;SDS011;52863;52.504;13.480;2022-07-03T09:47:49;6.97;;;1.73;;
51872;SDS011;52863;52.504;13.480;2022-07-03T09:50:31;1.55;;;1.40;;
51872;SDS011;52863;52.504;13.480;2022-07-03T09:52:58;3.58;;;1.80;;
51872;SDS011;52863;52.504;13.480;2022-07-03T09:55:26;2.20;;;1.30;;
51872;SDS011;52863;52.504;13.480;2022-07-03T09:58:00;3.40;;;1.55;;
51872;SDS011;52863;52.504;13.480;2022-07-03T10:00:28;2.30;;;1.40;;
51872;SDS011;52863;52.504;13.480;2022-07-03T10:03:09;2.92;;;1.33;;
51872;SDS011;52863;52.504;13.480;2022-07-03T10:05:46;2.38;;;1.90;;
51872;SDS011;52863;52.504;13.480;2022-07-03T10:08:20;3.03;;;1.80;;
51872;SDS011;52863;52.504;13.480;2022-07-03T10:10:48;3.85;;;1.77;;
51872;SDS011;52863;52.504;13.480;2022-07-03T10:13:19;1.60;;;1.50;;
51872;SDS011;52863;52.504;13.480;2022-07-03T10:15:46;3.55;;;1.70;;
51872;SDS011;52863;52.504;13.480;2022-07-03T10:18:13;3.20;;;1.60;;
51872;SDS011;52863;52.504;13.480;2022-07-03T10:20:41;1.83;;;1.50;;
51872;SDS011;52863;52.504;13.480;2022-07-03T10:23:12;2.78;;;1.58;;
51872;SDS011;52863;52.504;13.480;2022-07-03T10:25:42;2.33;;;1.50;;
51872;SDS011;52863;52.504;13.480;2022-07-03T10:28:11;2.55;;;1.40;;
51872;SDS011;52863;52.504;13.480;2022-07-03T10:30:42;3.05;;;1.77;;
51872;SDS011;52863;52.504;13.480;2022-07-03T10:33:11;3.60;;;1.60;;
51872;SDS011;52863;52.504;13.480;2022-07-03T10:35:39;1.70;;;1.60;;
51872;SDS011;52863;52.504;13.480;2022-07-03T10:38:13;2.50;;;1.60;;
51872;SDS011;52863;52.504;13.480;2022-07-03T10:40:53;4.43;;;1.52;;
51872;SDS011;52863;52.504;13.480;2022-07-03T10:43:43;2.30;;;1.58;;
51872;SDS011;52863;52.504;13.480;2022-07-03T10:46:31;2.00;;;1.60;;
51872;SDS011;52863;52.504;13.480;2022-07-03T10:49:00;7.20;;;1.83;;
51872;SDS011;52863;52.504;13.480;2022-07-03T10:51:30;2.50;;;1.50;;
51872;SDS011;52863;52.504;13.480;2022-07-03T10:54:18;1.60;;;1.48;;
51872;SDS011;52863;52.504;13.480;2022-07-03T10:57:08;1.85;;;1.63;;
51872;SDS011;52863;52.504;13.480;2022-07-03T10:59:58;1.80;;;1.70;;
51872;SDS011;52863;52.504;13.480;2022-07-03T11:02:28;5.57;;;1.58;;
51872;SDS011;52863;52.504;13.480;2022-07-03T11:05:08;3.17;;;1.67;;
51872;SDS011;52863;52.504;13.480;2022-07-03T11:08:07;2.05;;;1.70;;
51872;SDS011;52863;52.504;13.480;2022-07-03T11:10:38;2.90;;;1.60;;
51872;SDS011;52863;52.504;13.480;2022-07-03T11:13:10;4.28;;;2.00;;
51872;SDS011;52863;52.504;13.480;2022-07-03T11:15:41;3.08;;;1.50;;
51872;SDS011;52863;52.504;13.480;2022-07-03T11:18:13;3.20;;;1.70;;
51872;SDS011;52863;52.504;13.480;2022-07-03T11:24:16;2.10;;;1.80;;
51872;SDS011;52863;52.504;13.480;2022-07-03T11:30:00;4.90;;;1.95;;
51872;SDS011;52863;52.504;13.480;2022-07-03T11:35:43;3.33;;;1.55;;
51872;SDS011;52863;52.504;13.480;2022-07-03T11:38:19;1.58;;;1.48;;
51872;SDS011;52863;52.504;13.480;2022-07-03T11:40:51;2.63;;;1.30;;
51872;SDS011;52863;52.504;13.480;2022-07-03T11:43:19;1.38;;;1.10;;
51872;SDS011;52863;52.504;13.480;2022-07-03T11:45:46;1.40;;;1.27;;
51872;SDS011;52863;52.504;13.480;2022-07-03T11:48:14;2.08;;;1.42;;
51872;SDS011;52863;52.504;13.480;2022-07-03T11:50:44;1.42;;;1.33;;
51872;SDS011;52863;52.504;13.480;2022-07-03T11:53:15;1.60;;;1.35;;
51872;SDS011;52863;52.504;13.480;2022-07-03T11:55:51;4.13;;;1.60;;
51872;SDS011;52863;52.504;13.480;2022-07-03T11:58:19;3.85;;;1.50;;
51872;SDS011;52863;52.504;13.480;2022-07-03T12:00:46;2.10;;;1.58;;
51872;SDS011;52863;52.504;13.480;2022-07-03T12:03:20;1.65;;;1.33;;
51872;SDS011;52863;52.504;13.480;2022-07-03T12:05:50;1.52;;;1.27;;
51872;SDS011;52863;52.504;13.480;2022-07-03T12:08:23;2.17;;;1.35;;
51872;SDS011;52863;52.504;13.480;2022-07-03T12:10:55;3.85;;;1.10;;
51872;SDS011;52863;52.504;13.480;2022-07-03T12:13:25;1.55;;;1.40;;
51872;SDS011;52863;52.504;13.480;2022-07-03T12:15:53;3.13;;;1.23;;
51872;SDS011;52863;52.504;13.480;2022-07-03T12:18:26;1.60;;;1.50;;
51872;SDS011;52863;52.504;13.480;2022-07-03T12:20:53;1.90;;;1.33;;
51872;SDS011;52863;52.504;13.480;2022-07-03T12:23:20;2.22;;;1.30;;
51872;SDS011;52863;52.504;13.480;2022-07-03T12:25:47;5.43;;;1.50;;
51872;SDS011;52863;52.504;13.480;2022-07-03T12:28:14;2.83;;;1.15;;
51872;SDS011;52863;52.504;13.480;2022-07-03T12:30:41;2.97;;;1.25;;
51872;SDS011;52863;52.504;13.480;2022-07-03T12:33:08;3.72;;;1.25;;
51872;SDS011;52863;52.504;13.480;2022-07-03T12:35:35;2.22;;;1.40;;
51872;SDS011;52863;52.504;13.480;2022-07-03T12:38:02;1.40;;;1.30;;
51872;SDS011;52863;52.504;13.480;2022-07-03T12:40:29;1.98;;;1.80;;
51872;SDS011;52863;52.504;13.480;2022-07-03T12:42:56;1.70;;;1.30;;
51872;SDS011;52863;52.504;13.480;2022-07-03T12:45:24;2.60;;;1.35;;
51872;SDS011;52863;52.504;13.480;2022-07-03T12:47:58;3.33;;;1.52;;
51872;SDS011;52863;52.504;13.480;2022-07-03T12:53:18;3.05;;;1.40;;
51872;SDS011;52863;52.504;13.480;2022-07-03T12:55:53;1.90;;;1.45;;
51872;SDS011;52863;52.504;13.480;2022-07-03T12:58:22;1.90;;;1.55;;
51872;SDS011;52863;52.504;13.480;2022-07-03T13:01:19;10.83;;;3.37;;
51872;SDS011;52863;52.504;13.480;2022-07-03T13:03:50;2.23;;;1.70;;
51872;SDS011;52863;52.504;13.480;2022-07-03T13:06:17;3.17;;;1.70;;
51872;SDS011;52863;52.504;13.480;2022-07-03T13:08:53;2.00;;;1.83;;
51872;SDS011;52863;52.504;13.480;2022-07-03T13:11:27;2.17;;;1.70;;
51872;SDS011;52863;52.504;13.480;2022-07-03T13:14:03;2.00;;;1.60;;
51872;SDS011;52863;52.504;13.480;2022-07-03T13:16:35;1.87;;;1.50;;
51872;SDS011;52863;52.504;13.480;2022-07-03T13:19:04;3.07;;;1.70;;
51872;SDS011;52863;52.504;13.480;2022-07-03T13:21:32;1.97;;;1.30;;
51872;SDS011;52863;52.504;13.480;2022-07-03T13:24:02;1.37;;;1.20;;
51872;SDS011;52863;52.504;13.480;2022-07-03T13:26:30;1.57;;;1.40;;
51872;SDS011;52863;52.504;13.480;2022-07-03T13:28:57;1.83;;;1.50;;
51872;SDS011;52863;52.504;13.480;2022-07-03T13:31:24;2.53;;;1.70;;
51872;SDS011;52863;52.504;13.480;2022-07-03T13:33:51;4.03;;;1.87;;
51872;SDS011;52863;52.504;13.480;2022-07-03T13:36:17;1.73;;;1.47;;
51872;SDS011;52863;52.504;13.480;2022-07-03T13:38:44;3.07;;;1.60;;
51872;SDS011;52863;52.504;13.480;2022-07-03T13:41:12;1.73;;;1.40;;
51872;SDS011;52863;52.504;13.480;2022-07-03T13:43:39;3.83;;;1.50;;
51872;SDS011;52863;52.504;13.480;2022-07-03T13:46:05;1.75;;;1.63;;
51872;SDS011;52863;52.504;13.480;2022-07-03T13:48:33;1.65;;;1.55;;
51872;SDS011;52863;52.504;13.480;2022-07-03T13:50:59;1.60;;;1.50;;
51872;SDS011;52863;52.504;13.480;2022-07-03T13:53:26;1.47;;;1.37;;
51872;SDS011;52863;52.504;13.480;2022-07-03T13:55:54;1.77;;;1.57;;
51872;SDS011;52863;52.504;13.480;2022-07-03T13:58:23;3.13;;;1.88;;
51872;SDS011;52863;52.504;13.480;2022-07-03T14:00:50;1.33;;;1.23;;
51872;SDS011;52863;52.504;13.480;2022-07-03T14:03:17;2.90;;;1.73;;
51872;SDS011;52863;52.504;13.480;2022-07-03T14:05:44;3.10;;;1.50;;
51872;SDS011;52863;52.504;13.480;2022-07-03T14:08:11;3.87;;;1.60;;
51872;SDS011;52863;52.504;13.480;2022-07-03T14:10:37;2.10;;;1.90;;
51872;SDS011;52863;52.504;13.480;2022-07-03T14:13:05;3.23;;;1.67;;
51872;SDS011;52863;52.504;13.480;2022-07-03T14:15:33;1.60;;;1.33;;
51872;SDS011;52863;52.504;13.480;2022-07-03T14:18:00;3.00;;;1.60;;
51872;SDS011;52863;52.504;13.480;2022-07-03T14:20:27;2.10;;;1.70;;
51872;SDS011;52863;52.504;13.480;2022-07-03T14:22:54;3.43;;;1.30;;
51872;SDS011;52863;52.504;13.480;2022-07-03T14:25:21;2.73;;;1.83;;
51872;SDS011;52863;52.504;13.480;2022-07-03T14:27:48;1.67;;;1.50;;
51872;SDS011;52863;52.504;13.480;2022-07-03T14:30:34;2.07;;;1.73;;
51872;SDS011;52863;52.504;13.480;2022-07-03T14:33:19;2.40;;;1.73;;
51872;SDS011;52863;52.504;13.480;2022-07-03T14:35:45;2.93;;;1.83;;
51872;SDS011;52863;52.504;13.480;2022-07-03T14:38:12;1.80;;;1.50;;
51872;SDS011;52863;52.504;13.480;2022-07-03T14:40:39;1.50;;;1.40;;
51872;SDS011;52863;52.504;13.480;2022-07-03T14:43:06;2.43;;;1.63;;
51872;SDS011;52863;52.504;13.480;2022-07-03T14:45:33;1.50;;;1.40;;
51872;SDS011;52863;52.504;13.480;2022-07-03T14:48:06;1.80;;;1.70;;
51872;SDS011;52863;52.504;13.480;2022-07-03T14:50:34;2.27;;;1.43;;
51872;SDS011;52863;52.504;13.480;2022-07-03T14:53:01;4.53;;;1.50;;
51872;SDS011;52863;52.504;13.480;2022-07-03T14:55:34;2.27;;;1.33;;
51872;SDS011;52863;52.504;13.480;2022-07-03T14:58:04;1.67;;;1.40;;
51872;SDS011;52863;52.504;13.480;2022-07-03T15:00:36;3.97;;;1.57;;
51872;SDS011;52863;52.504;13.480;2022-07-03T15:03:08;5.13;;;1.77;;
51872;SDS011;52863;52.504;13.480;2022-07-03T15:05:44;1.93;;;1.73;;
51872;SDS011;52863;52.504;13.480;2022-07-03T15:11:12;1.90;;;1.37;;